createdAt,value
2023-01-07T00:01:37.147Z,100299.73
2023-01-07T00:04:07.017Z,100308.83
2023-01-07T00:06:36.289Z,100306.83
2023-01-07T00:09:04.711Z,100312.88
2023-01-07T00:11:34.252Z,100314.27
2023-01-07T00:14:02.507Z,100317.59
2023-01-07T00:16:31.517Z,100322.42
2023-01-07T00:18:59.945Z,100326.27
2023-01-07T00:21:28.528Z,100331.94
2023-01-07T00:23:58.995Z,100335.71
2023-01-07T00:26:27.918Z,100332.46
2023-01-07T00:28:55.881Z,100335.55
2023-01-07T00:31:25.065Z,100336.77
2023-01-07T00:34:07.055Z,100341.43
2023-01-07T00:36:35.748Z,100347.60
2023-01-07T00:39:05.937Z,100353.41
2023-01-07T00:41:33.016Z,100355.09
2023-01-07T00:44:00.358Z,100358.00
2023-01-07T00:46:27.662Z,100353.20
2023-01-07T00:48:54.825Z,100345.84
2023-01-07T00:51:21.980Z,100343.78
2023-01-07T00:53:49.210Z,100342.60
2023-01-07T00:56:17.867Z,100342.80
2023-01-07T00:58:45.359Z,100344.00
2023-01-07T01:01:14.128Z,100349.66
2023-01-07T01:03:42.097Z,100365.26
2023-01-07T01:06:13.604Z,100361.67
2023-01-07T01:08:41.752Z,100378.30
2023-01-07T01:11:11.503Z,100377.62
2023-01-07T01:13:39.236Z,100374.03
2023-01-07T01:16:11.539Z,100377.80
2023-01-07T01:18:38.938Z,100375.78
2023-01-07T01:21:08.110Z,100374.27
2023-01-07T01:23:35.127Z,100370.50
2023-01-07T01:26:07.923Z,100372.55
2023-01-07T01:28:35.653Z,100371.88
2023-01-07T01:31:03.391Z,100368.10
2023-01-07T01:33:39.333Z,100367.95
2023-01-07T01:36:10.407Z,100370.70
2023-01-07T01:38:37.789Z,100368.15
2023-01-07T01:41:05.068Z,100375.89
2023-01-07T01:43:37.656Z,100373.16
2023-01-07T01:46:07.442Z,100379.51
2023-01-07T01:48:37.946Z,100382.61
2023-01-07T01:51:05.760Z,100383.33
2023-01-07T01:53:36.472Z,100381.61
2023-01-07T01:56:08.468Z,100382.31
2023-01-07T01:58:39.309Z,100391.10
2023-01-07T02:01:07.194Z,100388.19
2023-01-07T02:03:37.670Z,100389.39
2023-01-07T02:06:05.068Z,100392.30
2023-01-07T02:08:33.077Z,100390.59
2023-01-07T02:11:18.265Z,100387.67
2023-01-07T02:14:02.467Z,100384.75
2023-01-07T02:16:38.006Z,100379.61
2023-01-07T02:19:24.512Z,100376.52
2023-01-07T02:21:58.783Z,100381.33
2023-01-07T02:24:50.290Z,100382.52
2023-01-07T02:27:27.059Z,100380.98
2023-01-07T02:30:08.911Z,100378.92
2023-01-07T02:32:55.139Z,100373.42
2023-01-07T02:35:32.682Z,100369.84
2023-01-07T02:38:08.973Z,100371.58
2023-01-07T02:40:44.805Z,100372.44
2023-01-07T02:43:18.124Z,100372.42
2023-01-07T02:45:50.707Z,100365.75
2023-01-07T02:48:20.951Z,100370.02
2023-01-07T02:50:48.171Z,100371.57
2023-01-07T02:53:19.342Z,100373.81
2023-01-07T02:55:58.581Z,100372.80
2023-01-07T02:58:49.807Z,100371.25
2023-01-07T03:01:36.155Z,100372.11
2023-01-07T03:04:15.617Z,100367.81
2023-01-07T03:06:57.477Z,100365.75
2023-01-07T03:09:31.954Z,100370.05
2023-01-07T03:12:07.048Z,100368.84
2023-01-07T03:14:42.062Z,100375.52
2023-01-07T03:17:13.653Z,100376.04
2023-01-07T03:19:46.285Z,100377.58
2023-01-07T03:22:17.092Z,100373.63
2023-01-07T03:24:47.933Z,100376.71
2023-01-07T03:27:17.873Z,100377.89
2023-01-07T03:29:45.158Z,100378.61
2023-01-07T03:32:17.514Z,100377.07
2023-01-07T03:34:45.837Z,100379.98
2023-01-07T03:37:15.513Z,100381.53
2023-01-07T03:39:45.647Z,100380.67
2023-01-07T03:42:31.718Z,100378.44
2023-01-07T03:45:00.106Z,100381.54
2023-01-07T03:47:30.689Z,100377.06
2023-01-07T03:49:57.854Z,100383.59
2023-01-07T03:52:25.045Z,100379.13
2023-01-07T03:54:52.410Z,100379.98
2023-01-07T03:57:20.053Z,100380.84
2023-01-07T03:59:47.193Z,100376.17
2023-01-07T04:02:14.497Z,100375.14
2023-01-07T04:04:41.831Z,100379.95
2023-01-07T04:07:09.682Z,100383.23
2023-01-07T04:09:36.657Z,100383.25
2023-01-07T04:12:04.771Z,100381.36
2023-01-07T04:14:31.899Z,100383.25
2023-01-07T04:16:59.699Z,100383.42
2023-01-07T04:19:27.213Z,100382.91
2023-01-07T04:21:54.502Z,100382.05
2023-01-07T04:24:21.574Z,100380.16
2023-01-07T04:26:49.029Z,100378.95
2023-01-07T04:29:16.428Z,100376.56
2023-01-07T04:31:43.424Z,100375.72
2023-01-07T04:34:10.494Z,100377.95
2023-01-07T04:36:37.748Z,100383.27
2023-01-07T04:39:05.563Z,100378.64
2023-01-07T04:41:33.072Z,100378.98
2023-01-07T04:44:00.127Z,100381.55
2023-01-07T04:46:27.211Z,100377.42
2023-01-07T04:48:54.517Z,100380.86
2023-01-07T04:51:22.417Z,100382.08
2023-01-07T04:53:49.641Z,100378.48
2023-01-07T04:56:17.646Z,100374.36
2023-01-07T04:58:45.822Z,100370.91
2023-01-07T05:01:13.589Z,100373.33
2023-01-07T05:03:40.919Z,100376.92
2023-01-07T05:06:09.566Z,100393.76
2023-01-07T05:08:36.928Z,100402.34
2023-01-07T05:11:05.336Z,100400.80
2023-01-07T05:13:35.408Z,100400.28
2023-01-07T05:16:04.021Z,100401.85
2023-01-07T05:18:32.700Z,100406.14
2023-01-07T05:21:00.018Z,100406.66
2023-01-07T05:23:27.160Z,100404.75
2023-01-07T05:25:54.346Z,100406.30
2023-01-07T05:28:21.474Z,100412.48
2023-01-07T05:30:49.089Z,100419.73
2023-01-07T05:33:16.122Z,100422.80
2023-01-07T05:35:43.384Z,100421.59
2023-01-07T05:38:10.678Z,100423.14
2023-01-07T05:40:37.946Z,100427.08
2023-01-07T05:43:05.232Z,100428.11
2023-01-07T05:45:32.329Z,100427.94
2023-01-07T05:47:59.289Z,100429.31
2023-01-07T05:50:26.468Z,100431.73
2023-01-07T05:52:54.783Z,100433.13
2023-01-07T05:55:21.858Z,100434.84
2023-01-07T05:57:49.088Z,100433.80
2023-01-07T06:00:18.641Z,100431.56
2023-01-07T06:02:45.942Z,100433.45
2023-01-07T06:05:13.494Z,100428.98
2023-01-07T06:07:40.634Z,100430.34
2023-01-07T06:10:08.626Z,100429.31
2023-01-07T06:12:35.804Z,100433.95
2023-01-07T06:15:02.679Z,100431.88
2023-01-07T06:17:29.838Z,100434.46
2023-01-07T06:19:57.105Z,100436.52
2023-01-07T06:22:24.014Z,100438.42
2023-01-07T06:24:51.007Z,100440.83
2023-01-07T06:27:18.236Z,100448.56
2023-01-07T06:29:45.248Z,100449.09
2023-01-07T06:32:12.627Z,100456.48
2023-01-07T06:34:39.659Z,100458.86
2023-01-07T06:37:07.064Z,100462.46
2023-01-07T06:39:34.131Z,100466.78
2023-01-07T06:42:01.177Z,100468.32
2023-01-07T06:44:28.289Z,100469.36
2023-01-07T06:46:56.376Z,100473.14
2023-01-07T06:49:23.597Z,100469.53
2023-01-07T06:51:50.550Z,100468.83
2023-01-07T06:54:18.097Z,100478.83
2023-01-07T06:56:45.124Z,100474.86
2023-01-07T06:59:12.819Z,100479.84
2023-01-07T07:01:40.335Z,100483.13
2023-01-07T07:04:07.646Z,100484.84
2023-01-07T07:06:34.619Z,100489.64
2023-01-07T07:09:01.639Z,100491.00
2023-01-07T07:11:28.693Z,100490.30
2023-01-07T07:13:55.714Z,100495.08
2023-01-07T07:16:24.246Z,100502.15
2023-01-07T07:18:51.606Z,100501.45
2023-01-07T07:21:18.675Z,100509.16
2023-01-07T07:23:45.860Z,100506.05
2023-01-07T07:26:12.988Z,100507.09
2023-01-07T07:28:42.861Z,100510.54
2023-01-07T07:31:10.546Z,100507.60
2023-01-07T07:33:37.653Z,100506.72
2023-01-07T07:36:05.023Z,100509.11
2023-01-07T07:38:32.005Z,100510.12
2023-01-07T07:40:59.885Z,100507.70
2023-01-07T07:43:26.950Z,100509.60
2023-01-07T07:45:54.024Z,100515.46
2023-01-07T07:48:21.454Z,100510.46
2023-01-07T07:50:53.032Z,100516.98
2023-01-07T07:53:23.033Z,100517.85
2023-01-07T07:55:50.188Z,100515.26
2023-01-07T07:58:17.215Z,100517.34
2023-01-07T08:00:44.393Z,100516.98
2023-01-07T08:03:12.820Z,100519.41
2023-01-07T08:05:43.305Z,100514.42
2023-01-07T08:08:11.702Z,100523.21
2023-01-07T08:10:39.361Z,100530.09
2023-01-07T08:13:10.283Z,100529.59
2023-01-07T08:15:37.672Z,100531.27
2023-01-07T08:18:06.726Z,100532.98
2023-01-07T08:20:34.473Z,100532.10
2023-01-07T08:23:05.152Z,100527.28
2023-01-07T08:25:33.563Z,100525.55
2023-01-07T08:28:01.674Z,100525.20
2023-01-07T08:30:29.191Z,100524.52
2023-01-07T08:32:56.778Z,100526.75
2023-01-07T08:35:24.496Z,100518.48
2023-01-07T08:37:52.072Z,100519.83
2023-01-07T08:40:19.255Z,100518.58
2023-01-07T08:42:46.244Z,100522.34
2023-01-07T08:45:14.467Z,100523.48
2023-01-07T08:47:41.450Z,100531.73
2023-01-07T08:50:09.427Z,100529.45
2023-01-07T08:52:38.185Z,100531.80
2023-01-07T08:55:05.410Z,100534.33
2023-01-07T08:57:32.363Z,100535.30
2023-01-07T08:59:59.631Z,100536.16
2023-01-07T09:02:26.975Z,100532.50
2023-01-07T09:04:54.473Z,100532.12
2023-01-07T09:07:21.761Z,100530.15
2023-01-07T09:09:48.926Z,100529.23
2023-01-07T09:12:16.143Z,100532.98
2023-01-07T09:14:43.357Z,100532.29
2023-01-07T09:17:10.575Z,100535.90
2023-01-07T09:19:37.505Z,100537.52
2023-01-07T09:22:05.257Z,100538.51
2023-01-07T09:24:32.269Z,100538.77
2023-01-07T09:26:59.238Z,100536.64
2023-01-07T09:29:27.080Z,100528.50
2023-01-07T09:31:54.177Z,100533.65
2023-01-07T09:34:21.626Z,100535.59
2023-01-07T09:36:48.932Z,100536.19
2023-01-07T09:39:17.322Z,100531.76
2023-01-07T09:41:55.541Z,100531.63
2023-01-07T09:44:36.109Z,100536.54
2023-01-07T09:47:04.605Z,100532.45
2023-01-07T09:49:33.633Z,100532.64
2023-01-07T09:52:06.007Z,100532.83
2023-01-07T09:54:34.945Z,100536.52
2023-01-07T09:57:02.427Z,100539.31
2023-01-07T09:59:30.609Z,100541.22
2023-01-07T10:02:07.610Z,100540.69
2023-01-07T10:04:42.982Z,100539.13
2023-01-07T10:07:21.898Z,100537.77
2023-01-07T10:10:06.662Z,100537.91
2023-01-07T10:12:39.855Z,100539.30
2023-01-07T10:15:30.933Z,100534.62
2023-01-07T10:18:17.527Z,100535.75
2023-01-07T10:20:51.987Z,100532.29
2023-01-07T10:23:24.228Z,100535.48
2023-01-07T10:25:54.773Z,100527.30
2023-01-07T10:28:29.959Z,100521.25
2023-01-07T10:30:57.187Z,100515.91
2023-01-07T10:33:28.675Z,100513.14
2023-01-07T10:36:04.817Z,100512.76
2023-01-07T10:38:35.541Z,100510.60
2023-01-07T10:41:08.671Z,100506.02
2023-01-07T10:43:56.914Z,100507.64
2023-01-07T10:46:43.507Z,100507.77
2023-01-07T10:49:23.746Z,100506.25
2023-01-07T10:52:10.926Z,100500.75
2023-01-07T10:54:52.654Z,100500.84
2023-01-07T10:57:23.134Z,100498.42
2023-01-07T10:59:52.826Z,100497.36
2023-01-07T11:02:22.997Z,100498.42
2023-01-07T11:04:50.576Z,100496.35
2023-01-07T11:07:26.363Z,100492.56
2023-01-07T11:09:56.245Z,100494.86
2023-01-07T11:12:29.218Z,100495.22
2023-01-07T11:15:00.167Z,100496.54
2023-01-07T11:17:36.115Z,100492.55
2023-01-07T11:20:03.428Z,100491.16
2023-01-07T11:22:35.647Z,100495.17
2023-01-07T11:25:22.937Z,100491.75
2023-01-07T11:27:50.251Z,100491.64
2023-01-07T11:30:27.159Z,100490.22
2023-01-07T11:33:00.699Z,100481.70
2023-01-07T11:35:29.225Z,100479.09
2023-01-07T11:37:56.817Z,100475.73
2023-01-07T11:40:26.686Z,100478.32
2023-01-07T11:42:56.629Z,100471.73
2023-01-07T11:45:27.010Z,100470.25
2023-01-07T11:48:02.101Z,100463.71
2023-01-07T11:50:36.240Z,100461.10
2023-01-07T11:53:09.057Z,100461.05
2023-01-07T11:55:36.227Z,100464.52
2023-01-07T11:58:29.278Z,100462.14
2023-01-07T12:01:09.563Z,100449.67
2023-01-07T12:03:37.927Z,100444.92
2023-01-07T12:06:09.893Z,100446.55
2023-01-07T12:08:37.866Z,100441.25
2023-01-07T12:11:10.004Z,100437.04
2023-01-07T12:13:38.035Z,100434.54
2023-01-07T12:16:07.590Z,100427.95
2023-01-07T12:18:57.605Z,100419.03
2023-01-07T12:21:42.499Z,100415.89
2023-01-07T12:24:55.489Z,100418.50
2023-01-07T12:27:32.910Z,100412.44
2023-01-07T12:30:13.973Z,100412.31
2023-01-07T12:32:51.354Z,100412.52
2023-01-07T12:35:24.541Z,100415.61
2023-01-07T12:37:58.738Z,100416.97
2023-01-07T12:40:33.841Z,100417.52
2023-01-07T12:43:06.876Z,100420.56
2023-01-07T12:45:41.398Z,100419.44
2023-01-07T12:48:16.967Z,100420.52
2023-01-07T12:50:48.641Z,100427.79
2023-01-07T12:53:19.868Z,100428.57
2023-01-07T12:55:51.142Z,100423.07
2023-01-07T12:58:23.536Z,100417.97
2023-01-07T13:00:59.318Z,100410.48
2023-01-07T13:03:39.334Z,100410.08
2023-01-07T13:06:11.483Z,100415.45
2023-01-07T13:08:45.295Z,100415.48
2023-01-07T13:11:41.392Z,100414.79
2023-01-07T13:14:12.161Z,100411.50
2023-01-07T13:16:39.488Z,100410.95
2023-01-07T13:19:09.655Z,100404.88
2023-01-07T13:21:37.659Z,100405.20
2023-01-07T13:24:19.614Z,100405.25
2023-01-07T13:26:57.813Z,100412.81
2023-01-07T13:29:44.080Z,100412.63
2023-01-07T13:32:38.923Z,100412.61
2023-01-07T13:35:29.122Z,100428.43
2023-01-07T13:38:17.148Z,100428.98
2023-01-07T13:41:04.153Z,100425.88
2023-01-07T13:43:50.612Z,100429.34
2023-01-07T13:46:22.171Z,100427.51
2023-01-07T13:48:55.779Z,100432.91
2023-01-07T13:51:30.433Z,100435.71
2023-01-07T13:53:58.100Z,100438.87
2023-01-07T13:56:44.890Z,100437.70
2023-01-07T13:59:28.460Z,100442.54
2023-01-07T14:02:18.556Z,100445.11
2023-01-07T14:04:53.270Z,100446.34
2023-01-07T14:07:21.400Z,100447.58
2023-01-07T14:09:49.642Z,100453.92
2023-01-07T14:13:01.830Z,100455.23
2023-01-07T14:16:00.741Z,100454.39
2023-01-07T14:19:13.900Z,100456.52
2023-01-07T14:21:59.493Z,100458.71
2023-01-07T14:24:59.612Z,100463.77
2023-01-07T14:27:46.827Z,100465.26
2023-01-07T14:30:27.711Z,100463.14
2023-01-07T14:33:01.450Z,100464.44
2023-01-07T14:35:33.690Z,100465.85
2023-01-07T14:38:00.833Z,100464.14
2023-01-07T14:41:03.073Z,100468.96
2023-01-07T14:44:03.687Z,100467.45
2023-01-07T14:46:51.886Z,100469.21
2023-01-07T14:49:53.896Z,100468.89
2023-01-07T14:52:51.224Z,100475.83
2023-01-07T14:55:42.792Z,100479.29
2023-01-07T14:58:34.773Z,100479.20
2023-01-07T15:01:26.079Z,100478.27
2023-01-07T15:04:05.338Z,100481.28
2023-01-07T15:06:37.209Z,100482.66
2023-01-07T15:09:28.004Z,100482.19
2023-01-07T15:12:14.831Z,100483.39
2023-01-07T15:15:04.317Z,100486.16
2023-01-07T15:17:32.133Z,100484.82
2023-01-07T15:19:59.660Z,100487.61
2023-01-07T15:22:49.778Z,100482.30
2023-01-07T15:25:30.161Z,100478.02
2023-01-07T15:28:05.768Z,100483.92
2023-01-07T15:30:49.007Z,100486.51
2023-01-07T15:33:36.040Z,100480.80
2023-01-07T15:36:07.845Z,100484.21
2023-01-07T15:38:41.620Z,100486.06
2023-01-07T15:41:26.110Z,100491.56
2023-01-07T15:43:53.731Z,100494.61
2023-01-07T15:46:21.538Z,100490.98
2023-01-07T15:49:04.197Z,100492.49
2023-01-07T15:51:39.708Z,100493.18
2023-01-07T15:54:09.059Z,100488.00
2023-01-07T15:56:37.929Z,100487.69
2023-01-07T15:59:14.704Z,100484.77
2023-01-07T16:01:50.876Z,100489.77
2023-01-07T16:04:27.802Z,100489.26
2023-01-07T16:06:56.709Z,100485.66
2023-01-07T16:09:25.240Z,100484.32
2023-01-07T16:11:54.689Z,100484.86
2023-01-07T16:14:23.778Z,100486.06
2023-01-07T16:17:04.652Z,100485.56
2023-01-07T16:19:31.826Z,100483.51
2023-01-07T16:22:00.993Z,100484.36
2023-01-07T16:24:28.662Z,100483.34
2023-01-07T16:26:59.384Z,100480.23
2023-01-07T16:29:35.401Z,100474.52
2023-01-07T16:32:05.109Z,100466.25
2023-01-07T16:35:04.533Z,100463.33
2023-01-07T16:37:32.285Z,100453.35
2023-01-07T16:39:59.819Z,100454.05
2023-01-07T16:42:27.541Z,100447.19
2023-01-07T16:45:07.060Z,100445.83
2023-01-07T16:47:35.368Z,100440.16
2023-01-07T16:50:41.888Z,100439.14
2023-01-07T16:53:33.648Z,100436.91
2023-01-07T16:56:17.524Z,100435.19
2023-01-07T16:58:50.263Z,100436.06
2023-01-07T17:01:29.952Z,100431.95
2023-01-07T17:04:00.986Z,100427.67
2023-01-07T17:06:31.499Z,100431.30
2023-01-07T17:09:06.097Z,100433.73
2023-01-07T17:11:40.651Z,100430.80
2023-01-07T17:14:33.372Z,100430.65
2023-01-07T17:17:08.927Z,100429.81
2023-01-07T17:19:42.282Z,100429.66
2023-01-07T17:22:31.758Z,100431.23
2023-01-07T17:25:07.176Z,100435.70
2023-01-07T17:27:35.781Z,100431.56
2023-01-07T17:30:09.067Z,100428.28
2023-01-07T17:32:37.806Z,100427.94
2023-01-07T17:35:05.952Z,100425.02
2023-01-07T17:37:33.346Z,100429.99
2023-01-07T17:40:00.392Z,100431.36
2023-01-07T17:42:46.987Z,100422.57
2023-01-07T17:45:19.620Z,100426.33
2023-01-07T17:47:49.489Z,100430.80
2023-01-07T17:50:20.411Z,100428.38
2023-01-07T17:52:49.740Z,100423.88
2023-01-07T17:55:22.925Z,100425.21
2023-01-07T17:57:50.090Z,100424.66
2023-01-07T18:00:20.879Z,100427.58
2023-01-07T18:02:49.128Z,100422.05
2023-01-07T18:05:19.176Z,100418.42
2023-01-07T18:07:46.176Z,100420.47
2023-01-07T18:10:15.279Z,100423.91
2023-01-07T18:12:43.624Z,100418.38
2023-01-07T18:15:20.500Z,100412.52
2023-01-07T18:17:46.348Z,100403.75
2023-01-07T18:20:14.596Z,100396.00
2023-01-07T18:22:41.919Z,100406.16
2023-01-07T18:25:12.759Z,100410.83
2023-01-07T18:27:43.057Z,100414.78
2023-01-07T18:30:16.409Z,100413.91
2023-01-07T18:32:43.945Z,100414.09
2023-01-07T18:35:11.524Z,100409.27
2023-01-07T18:37:38.657Z,100412.54
2023-01-07T18:40:06.425Z,100411.34
2023-01-07T18:42:35.053Z,100409.27
2023-01-07T18:45:02.597Z,100409.08
2023-01-07T18:47:43.179Z,100407.69
2023-01-07T18:50:11.257Z,100409.92
2023-01-07T18:52:42.880Z,100409.07
2023-01-07T18:55:11.505Z,100405.45
2023-01-07T18:57:38.767Z,100406.31
2023-01-07T19:00:07.271Z,100403.73
2023-01-07T19:02:34.364Z,100403.39
2023-01-07T19:05:01.688Z,100401.83
2023-01-07T19:07:30.352Z,100401.84
2023-01-07T19:09:57.397Z,100395.98
2023-01-07T19:12:24.427Z,100390.82
2023-01-07T19:14:51.660Z,100388.06
2023-01-07T19:17:18.651Z,100392.06
2023-01-07T19:19:48.730Z,100388.98
2023-01-07T19:22:17.385Z,100391.91
2023-01-07T19:24:44.692Z,100402.42
2023-01-07T19:27:14.861Z,100394.48
2023-01-07T19:29:41.987Z,100396.73
2023-01-07T19:32:09.300Z,100395.02
2023-01-07T19:34:36.365Z,100390.55
2023-01-07T19:37:03.591Z,100397.45
2023-01-07T19:39:30.779Z,100393.67
2023-01-07T19:41:57.881Z,100389.05
2023-01-07T19:44:25.094Z,100389.06
2023-01-07T19:46:52.348Z,100390.27
2023-01-07T19:49:19.406Z,100391.48
2023-01-07T19:51:47.881Z,100388.57
2023-01-07T19:54:16.806Z,100387.38
2023-01-07T19:56:44.781Z,100388.58
2023-01-07T19:59:12.615Z,100384.61
2023-01-07T20:01:40.705Z,100383.08
2023-01-07T20:04:09.290Z,100376.88
2023-01-07T20:06:39.850Z,100376.02
2023-01-07T20:09:11.072Z,100375.48
2023-01-07T20:11:39.009Z,100374.46
2023-01-07T20:14:07.225Z,100372.91
2023-01-07T20:16:37.124Z,100372.23
2023-01-07T20:19:05.491Z,100368.63
2023-01-07T20:21:33.127Z,100363.81
2023-01-07T20:24:00.627Z,100362.27
2023-01-07T20:26:31.705Z,100365.70
2023-01-07T20:29:00.253Z,100363.83
2023-01-07T20:31:29.568Z,100357.29
2023-01-07T20:33:57.669Z,100355.92
2023-01-07T20:36:27.499Z,100351.99
2023-01-07T20:38:54.951Z,100354.92
2023-01-07T20:41:23.930Z,100355.80
2023-01-07T20:43:55.961Z,100355.45
2023-01-07T20:46:23.534Z,100360.81
2023-01-07T20:48:51.373Z,100351.20
2023-01-07T20:51:20.212Z,100356.55
2023-01-07T20:53:48.147Z,100361.37
2023-01-07T20:56:18.532Z,100357.42
2023-01-07T20:58:45.959Z,100353.31
2023-01-07T21:01:15.261Z,100355.91
2023-01-07T21:03:43.573Z,100355.23
2023-01-07T21:06:14.830Z,100354.55
2023-01-07T21:08:41.888Z,100355.39
2023-01-07T21:11:11.219Z,100354.35
2023-01-07T21:13:38.346Z,100354.18
2023-01-07T21:16:10.034Z,100354.36
2023-01-07T21:18:37.895Z,100354.19
2023-01-07T21:21:09.654Z,100364.36
2023-01-07T21:23:36.683Z,100364.19
2023-01-07T21:26:05.809Z,100358.54
2023-01-07T21:28:33.112Z,100353.21
2023-01-07T21:31:06.130Z,100352.55
2023-01-07T21:33:34.350Z,100346.02
2023-01-07T21:36:09.613Z,100351.70
2023-01-07T21:38:37.175Z,100349.29
2023-01-07T21:41:08.545Z,100352.23
2023-01-07T21:43:35.507Z,100346.91
2023-01-07T21:46:03.973Z,100353.98
2023-01-07T21:48:34.496Z,100346.44
2023-01-07T21:51:05.944Z,100340.60
2023-01-07T21:53:33.972Z,100345.59
2023-01-07T21:56:05.839Z,100342.14
2023-01-07T21:58:33.413Z,100344.04
2023-01-07T22:01:00.468Z,100341.31
2023-01-07T22:03:29.409Z,100344.07
2023-01-07T22:06:01.646Z,100349.58
2023-01-07T22:08:29.713Z,100340.29
2023-01-07T22:10:56.682Z,100340.64
2023-01-07T22:13:24.607Z,100339.11
2023-01-07T22:15:51.942Z,100343.24
2023-01-07T22:18:23.079Z,100337.75
2023-01-07T22:20:56.868Z,100328.98
2023-01-07T22:23:24.137Z,100338.27
2023-01-07T22:25:51.221Z,100330.01
2023-01-07T22:28:20.705Z,100330.36
2023-01-07T22:30:52.861Z,100331.05
2023-01-07T22:33:19.969Z,100324.50
2023-01-07T22:35:50.898Z,100325.36
2023-01-07T22:38:20.283Z,100331.71
2023-01-07T22:40:47.378Z,100325.36
2023-01-07T22:43:19.024Z,100331.38
2023-01-07T22:45:53.526Z,100329.33
2023-01-07T22:48:25.122Z,100327.27
2023-01-07T22:50:53.436Z,100324.70
2023-01-07T22:53:20.760Z,100327.63
2023-01-07T22:55:49.598Z,100318.66
2023-01-07T22:58:18.377Z,100320.54
2023-01-07T23:01:10.353Z,100324.34
2023-01-07T23:03:37.764Z,100320.54
2023-01-07T23:06:04.930Z,100322.09
2023-01-07T23:08:32.061Z,100314.70
2023-01-07T23:10:59.394Z,100314.88
2023-01-07T23:13:26.431Z,100312.63
2023-01-07T23:15:53.449Z,100308.32
2023-01-07T23:18:20.591Z,100306.42
2023-01-07T23:20:47.566Z,100305.05
2023-01-07T23:23:15.478Z,100309.01
2023-01-07T23:25:46.806Z,100314.00
2023-01-07T23:28:13.772Z,100307.98
2023-01-07T23:30:41.244Z,100306.44
2023-01-07T23:33:08.788Z,100308.69
2023-01-07T23:35:35.835Z,100300.78
2023-01-07T23:38:04.083Z,100303.00
2023-01-07T23:40:31.467Z,100298.88
2023-01-07T23:42:58.476Z,100296.11
2023-01-07T23:45:25.670Z,100301.27
2023-01-07T23:47:53.579Z,100288.91
2023-01-07T23:50:20.509Z,100281.52
2023-01-07T23:52:48.038Z,100280.65
2023-01-07T23:55:15.073Z,100278.09
2023-01-07T23:57:42.131Z,100278.43
